Time;durP1;ratioP1;P1;durP2;ratioP2;P2;SDS_P1;SDS_P2;PMS_P1;PMS_P2;Temp;Humidity;BMP_temperature;BMP_pressure;BME280_temperature;BME280_humidity;BME280_pressure;Samples;Min_cycle;Max_cycle;Signal;HPM_P1;HPM_P2
2022/12/28 00:01:16;;;;;;;5.93;1.90;;;2.90;99.90;;;;;;5059931;28;20051;-62
2022/12/28 00:03:42;;;;;;;10.02;1.70;;;2.90;99.90;;;;;;5056649;28;20037;-62
2022/12/28 00:06:08;;;;;;;8.88;1.88;;;2.90;99.90;;;;;;5057003;28;20099;-62
2022/12/28 00:08:33;;;;;;;11.82;1.98;;;2.90;99.90;;;;;;5060601;28;20044;-62
2022/12/28 00:11:04;;;;;;;9.32;2.65;;;2.90;99.90;;;;;;5059689;28;20044;-61
2022/12/28 00:13:31;;;;;;;13.13;2.30;;;2.90;99.90;;;;;;5063268;28;20040;-62
2022/12/28 00:15:58;;;;;;;5.63;1.90;;;2.90;99.90;;;;;;5060505;28;20488;-63
2022/12/28 00:18:23;;;;;;;5.78;1.88;;;2.90;99.90;;;;;;5049553;28;20401;-63
2022/12/28 00:20:57;;;;;;;16.13;2.47;;;2.90;99.90;;;;;;5047675;28;20033;-62
2022/12/28 00:23:23;;;;;;;8.45;1.75;;;2.90;99.90;;;;;;5048719;28;20132;-63
2022/12/28 00:25:49;;;;;;;5.57;2.00;;;2.90;99.90;;;;;;5038249;28;20536;-63
2022/12/28 00:28:14;;;;;;;7.32;2.00;;;2.90;99.90;;;;;;5044153;28;20144;-63
2022/12/28 00:30:40;;;;;;;5.05;2.20;;;2.90;99.90;;;;;;5038911;28;20063;-63
2022/12/28 00:33:06;;;;;;;5.97;2.30;;;3.00;99.90;;;;;;5046394;28;20044;-64
2022/12/28 00:35:31;;;;;;;5.68;2.15;;;3.00;99.90;;;;;;5043198;28;20132;-62
2022/12/28 00:37:57;;;;;;;21.77;3.17;;;3.00;99.90;;;;;;5049568;28;20068;-63
2022/12/28 00:40:22;;;;;;;6.28;2.20;;;3.00;99.90;;;;;;5032034;28;20025;-63
2022/12/28 00:42:48;;;;;;;7.18;1.90;;;3.00;99.90;;;;;;5047640;28;20044;-62
2022/12/28 00:45:13;;;;;;;5.35;1.92;;;3.10;99.90;;;;;;5046716;28;21740;-63
2022/12/28 00:47:39;;;;;;;7.50;1.95;;;3.10;99.90;;;;;;5047229;28;20083;-63
2022/12/28 00:50:05;;;;;;;6.00;2.13;;;3.10;99.90;;;;;;5044624;28;20086;-63
2022/12/28 00:52:31;;;;;;;10.15;2.20;;;3.10;99.90;;;;;;5047397;28;20048;-63
2022/12/28 00:54:56;;;;;;;8.20;2.35;;;3.10;99.90;;;;;;5047475;28;20127;-63
2022/12/28 00:57:22;;;;;;;6.75;2.40;;;3.10;99.90;;;;;;5046491;28;20102;-63
2022/12/28 00:59:47;;;;;;;4.93;2.17;;;3.20;99.90;;;;;;5046802;28;20041;-63
2022/12/28 01:02:13;;;;;;;13.15;2.67;;;3.20;99.90;;;;;;5039693;28;20043;-62
2022/12/28 01:04:38;;;;;;;9.82;2.70;;;3.20;99.90;;;;;;5045093;28;20072;-62
2022/12/28 01:07:04;;;;;;;8.25;2.58;;;3.20;99.90;;;;;;5026933;28;20121;-63
2022/12/28 01:09:30;;;;;;;8.35;2.45;;;3.30;99.90;;;;;;4980822;28;20061;-63
2022/12/28 01:11:55;;;;;;;7.97;2.70;;;3.30;99.90;;;;;;5032267;28;20122;-63
2022/12/28 01:14:21;;;;;;;9.32;2.38;;;3.30;99.90;;;;;;4992388;28;20329;-62
2022/12/28 01:16:47;;;;;;;8.52;2.30;;;3.30;99.90;;;;;;5009618;28;20052;-63
2022/12/28 01:19:17;;;;;;;7.88;2.33;;;3.30;99.90;;;;;;4997877;28;20046;-63
2022/12/28 01:21:43;;;;;;;10.85;2.65;;;3.30;99.90;;;;;;5010886;28;20044;-63
2022/12/28 01:24:09;;;;;;;10.88;2.50;;;3.30;99.90;;;;;;5049329;28;20445;-63
2022/12/28 01:26:35;;;;;;;6.50;2.55;;;3.40;99.90;;;;;;4999296;28;20131;-63
2022/12/28 01:29:01;;;;;;;8.63;3.38;;;3.40;99.90;;;;;;5004188;28;20042;-63
2022/12/28 01:31:26;;;;;;;9.07;2.30;;;3.40;99.90;;;;;;5001660;28;20089;-62
2022/12/28 01:33:54;;;;;;;10.05;3.22;;;3.40;99.90;;;;;;5046938;28;20492;-63
2022/12/28 01:36:25;;;;;;;7.03;2.20;;;3.40;99.90;;;;;;4981643;28;20107;-62
2022/12/28 01:38:54;;;;;;;6.55;2.40;;;3.50;99.90;;;;;;5012330;28;20586;-63
2022/12/28 01:41:20;;;;;;;7.20;2.22;;;3.50;99.90;;;;;;4984673;28;20061;-62
2022/12/28 01:43:52;;;;;;;10.55;2.50;;;3.50;99.90;;;;;;4998547;28;20039;-62
2022/12/28 01:46:31;;;;;;;5.75;2.10;;;3.50;99.90;;;;;;4990447;28;20050;-62
2022/12/28 01:49:03;;;;;;;8.02;2.25;;;3.50;99.90;;;;;;5008421;28;20096;-63
2022/12/28 01:51:34;;;;;;;10.30;2.90;;;3.60;99.90;;;;;;4993561;28;20094;-62
2022/12/28 01:54:01;;;;;;;7.95;2.88;;;3.60;99.90;;;;;;5008739;28;20425;-64
2022/12/28 01:56:27;;;;;;;5.25;2.40;;;3.60;99.90;;;;;;5000637;28;20087;-62
2022/12/28 01:58:54;;;;;;;8.18;2.20;;;3.70;99.90;;;;;;5012541;28;20169;-63
2022/12/28 02:01:20;;;;;;;6.53;2.03;;;3.70;99.90;;;;;;5026932;28;20047;-63
2022/12/28 02:03:46;;;;;;;5.13;2.72;;;3.70;99.90;;;;;;5015585;28;20114;-63
2022/12/28 02:06:12;;;;;;;6.70;2.08;;;3.70;99.90;;;;;;4987048;28;20052;-63
2022/12/28 02:08:58;;;;;;;10.85;2.33;;;3.80;99.90;;;;;;5030110;28;20066;-63
2022/12/28 02:11:24;;;;;;;8.20;2.78;;;3.80;99.90;;;;;;4997534;28;20131;-63
2022/12/28 02:13:51;;;;;;;5.32;2.08;;;3.80;99.90;;;;;;4975230;28;20138;-63
2022/12/28 02:16:17;;;;;;;5.60;2.22;;;3.80;99.90;;;;;;5035660;28;20670;-63
2022/12/28 02:18:44;;;;;;;10.55;2.03;;;3.80;99.90;;;;;;5031700;28;20039;-62
2022/12/28 02:21:32;;;;;;;5.00;1.85;;;3.80;99.90;;;;;;5039673;28;20036;-62
2022/12/28 02:24:16;;;;;;;4.18;1.83;;;3.80;99.90;;;;;;4993176;28;20490;-63
2022/12/28 02:26:55;;;;;;;8.38;2.22;;;3.90;99.90;;;;;;5008048;28;20502;-62
2022/12/28 02:29:41;;;;;;;4.95;1.75;;;3.90;99.90;;;;;;5023827;28;20042;-63
2022/12/28 02:32:25;;;;;;;4.75;1.95;;;3.80;99.90;;;;;;5009706;28;20464;-62
2022/12/28 02:35:09;;;;;;;4.28;2.10;;;3.80;99.90;;;;;;4963966;28;20053;-63
2022/12/28 02:37:44;;;;;;;5.88;1.70;;;3.80;99.90;;;;;;5033643;28;20044;-63
2022/12/28 02:40:24;;;;;;;8.82;2.13;;;3.80;99.90;;;;;;4972578;28;20514;-61
2022/12/28 02:42:52;;;;;;;2.70;1.52;;;3.80;99.90;;;;;;5002771;28;20516;-63
2022/12/28 02:51:09;;;;;;;2.50;1.20;;;3.80;99.90;;;;;;5005463;28;20064;-63
2022/12/28 02:54:00;;;;;;;6.53;1.42;;;3.90;99.90;;;;;;4986147;28;20047;-63
2022/12/28 02:56:31;;;;;;;2.53;1.25;;;3.90;99.90;;;;;;4986822;28;20054;-62
2022/12/28 02:59:30;;;;;;;2.22;1.30;;;3.90;99.90;;;;;;5007386;28;20053;-63
2022/12/28 03:02:10;;;;;;;3.65;1.20;;;3.90;99.90;;;;;;4977810;28;20387;-62
2022/12/28 03:04:59;;;;;;;2.92;1.50;;;3.90;99.90;;;;;;4972463;28;20047;-63
2022/12/28 03:10:14;;;;;;;2.47;1.40;;;;;;;;;;5003376;28;20708;-63
2022/12/28 03:12:57;;;;;;;3.30;1.15;;;;;;;;;;4997540;28;20049;-63
2022/12/28 03:15:28;;;;;;;3.60;1.23;;;;;;;;;;4968236;28;20039;-63
2022/12/28 03:31:42;;;;;;;2.75;0.98;;;;;;;;;;4997723;28;20037;-62
2022/12/28 03:34:08;;;;;;;1.83;1.23;;;;;;;;;;4992361;28;20054;-63
2022/12/28 03:36:51;;;;;;;1.52;0.95;;;;;;;;;;5027961;28;20050;-62
2022/12/28 03:39:41;;;;;;;2.00;1.13;;;;;;;;;;4965533;28;20054;-63
2022/12/28 03:45:10;;;;;;;2.63;1.13;;;;;;;;;;4982780;28;20518;-62
2022/12/28 03:47:37;;;;;;;2.08;1.00;;;;;;;;;;5023609;28;20048;-62
2022/12/28 03:50:04;;;;;;;2.03;0.80;;;;;;;;;;4975971;28;20039;-63
2022/12/28 03:52:31;;;;;;;3.78;1.35;;;;;;;;;;5026414;28;20120;-62
2022/12/28 03:54:57;;;;;;;2.28;1.10;;;;;;;;;;4983948;28;20042;-63
2022/12/28 03:57:23;;;;;;;4.28;1.30;;;;;;;;;;4996851;28;20406;-62
2022/12/28 03:59:49;;;;;;;2.00;1.15;;;;;;;;;;5038150;28;20041;-62
2022/12/28 04:02:15;;;;;;;3.03;1.30;;;;;;;;;;4978620;28;20046;-62
2022/12/28 04:04:41;;;;;;;1.80;1.23;;;;;;;;;;5048142;28;20031;-62
2022/12/28 04:07:07;;;;;;;3.72;1.45;;;;;;;;;;4992634;28;20045;-64
2022/12/28 04:09:33;;;;;;;5.18;1.15;;;;;;;;;;4995138;28;20042;-63
2022/12/28 04:11:59;;;;;;;7.47;1.55;;;;;;;;;;5003718;28;20132;-63
2022/12/28 04:14:25;;;;;;;3.25;1.48;;;;;;;;;;5014360;28;20041;-63
2022/12/28 04:16:51;;;;;;;2.45;1.40;;;;;;;;;;5008329;28;20043;-61
2022/12/28 04:19:17;;;;;;;5.55;1.70;;;;;;;;;;4995173;28;20043;-63
2022/12/28 04:21:43;;;;;;;3.15;1.42;;;;;;;;;;5009446;28;20055;-63
2022/12/28 04:24:09;;;;;;;4.40;1.42;;;;;;;;;;4994164;28;20548;-62
2022/12/28 04:26:36;;;;;;;3.00;1.75;;;;;;;;;;4998746;28;20044;-63
2022/12/28 04:29:02;;;;;;;1.70;1.38;;;;;;;;;;5012833;28;20451;-62
2022/12/28 04:31:29;;;;;;;4.15;1.50;;;;;;;;;;5005361;28;20071;-63
2022/12/28 04:33:56;;;;;;;8.50;2.22;;;;;;;;;;4991440;28;20042;-64
2022/12/28 04:36:22;;;;;;;3.38;1.65;;;;;;;;;;5043619;28;20039;-66
2022/12/28 04:38:48;;;;;;;2.67;1.40;;;;;;;;;;5041942;28;20108;-63
2022/12/28 04:41:14;;;;;;;3.42;1.30;;;;;;;;;;4992182;28;20143;-63
2022/12/28 04:43:41;;;;;;;3.05;1.55;;;;;;;;;;5005356;28;20675;-63
2022/12/28 04:46:09;;;;;;;3.70;1.48;;;;;;;;;;5008923;28;20420;-64
2022/12/28 04:48:35;;;;;;;4.55;1.63;;;;;;;;;;4960850;28;20154;-63
2022/12/28 04:51:06;;;;;;;3.33;1.50;;;;;;;;;;4989877;28;20400;-62
2022/12/28 04:53:35;;;;;;;3.53;1.50;;;;;;;;;;4995702;28;20035;-63
2022/12/28 04:56:05;;;;;;;4.00;1.60;;;;;;;;;;5050804;28;20486;-62
2022/12/28 04:58:31;;;;;;;4.55;2.05;;;;;;;;;;5025421;28;20533;-63
2022/12/28 05:01:23;;;;;;;4.45;1.70;;;;;;;;;;4972649;28;20398;-62
2022/12/28 05:03:49;;;;;;;3.03;1.85;;;;;;;;;;4968879;28;20100;-63
2022/12/28 05:06:16;;;;;;;3.70;1.80;;;;;;;;;;4982439;28;20058;-64
2022/12/28 05:08:43;;;;;;;3.15;1.50;;;;;;;;;;4995130;28;20106;-63
2022/12/28 05:11:14;;;;;;;4.53;2.38;;;;;;;;;;5018069;28;20061;-61
2022/12/28 05:13:40;;;;;;;3.10;1.73;;;;;;;;;;4980489;28;20067;-64
2022/12/28 05:16:08;;;;;;;2.33;1.60;;;;;;;;;;4983290;28;20071;-62
2022/12/28 05:18:34;;;;;;;3.15;1.80;;;;;;;;;;4995299;28;20041;-62
2022/12/28 05:21:01;;;;;;;3.53;1.63;;;;;;;;;;5029865;28;20124;-63
2022/12/28 05:23:28;;;;;;;2.47;1.75;;;;;;;;;;5004784;28;20060;-63
2022/12/28 05:25:54;;;;;;;2.97;1.80;;;;;;;;;;5030247;28;20045;-62
2022/12/28 05:28:20;;;;;;;3.97;1.80;;;;;;;;;;5015892;28;20043;-62
2022/12/28 05:30:46;;;;;;;4.22;1.80;;;;;;;;;;4979858;28;20504;-62
2022/12/28 05:33:12;;;;;;;3.83;1.50;;;;;;;;;;4994685;28;20085;-62
2022/12/28 05:35:38;;;;;;;2.50;1.40;;;;;;;;;;4971444;28;20041;-62
2022/12/28 05:38:04;;;;;;;1.88;1.58;;;;;;;;;;5024815;28;20040;-62
2022/12/28 05:40:30;;;;;;;2.63;1.40;;;;;;;;;;5000154;28;20055;-62
2022/12/28 05:42:56;;;;;;;2.20;1.42;;;;;;;;;;5046537;28;20046;-62
2022/12/28 05:45:22;;;;;;;5.85;1.80;;;;;;;;;;4989599;28;20041;-63
2022/12/28 05:47:48;;;;;;;4.80;1.80;;;;;;;;;;5022689;28;20048;-63
2022/12/28 05:50:14;;;;;;;3.28;2.00;;;;;;;;;;5050381;28;20034;-61
2022/12/28 05:52:40;;;;;;;4.53;1.70;;;;;;;;;;5034187;28;20028;-63
2022/12/28 05:55:06;;;;;;;3.38;1.67;;;;;;;;;;4969083;28;20195;-63
2022/12/28 05:57:32;;;;;;;3.28;2.45;;;;;;;;;;5029456;28;20123;-63
2022/12/28 05:59:58;;;;;;;3.38;2.00;;;;;;;;;;4982891;28;20180;-62
2022/12/28 06:02:26;;;;;;;2.78;1.85;;;;;;;;;;5003166;28;20077;-61
2022/12/28 06:04:55;;;;;;;3.45;1.70;;;;;;;;;;4989267;28;20042;-62
2022/12/28 06:07:21;;;;;;;2.88;1.35;;;;;;;;;;5052276;28;20836;-64
2022/12/28 06:09:47;;;;;;;7.03;2.00;;;;;;;;;;4971479;28;20030;-62
2022/12/28 06:12:13;;;;;;;3.22;1.50;;;;;;;;;;5033379;28;20047;-62
2022/12/28 06:14:39;;;;;;;3.78;2.10;;;;;;;;;;4984665;28;20033;-62
2022/12/28 06:17:05;;;;;;;1.65;1.17;;;;;;;;;;4997035;28;20055;-63
2022/12/28 06:19:32;;;;;;;2.33;1.17;;;;;;;;;;4991706;28;20123;-63
2022/12/28 06:21:58;;;;;;;2.58;1.38;;;;;;;;;;5016520;28;20094;-62
2022/12/28 06:24:24;;;;;;;3.17;1.65;;;;;;;;;;5014917;28;20044;-63
2022/12/28 06:26:50;;;;;;;5.28;1.60;;;;;;;;;;5033838;28;20728;-64
2022/12/28 06:29:16;;;;;;;2.17;1.45;;;;;;;;;;5021354;28;20047;-62
2022/12/28 06:31:50;;;;;;;5.55;2.03;;;;;;;;;;5032050;28;20045;-62
2022/12/28 06:34:16;;;;;;;2.35;1.42;;;;;;;;;;5004276;28;20170;-63
2022/12/28 06:36:43;;;;;;;1.95;1.55;;;;;;;;;;5025579;28;20048;-63
2022/12/28 06:39:11;;;;;;;1.55;1.30;;;;;;;;;;5003315;28;20154;-60
2022/12/28 06:41:37;;;;;;;7.20;2.08;;;;;;;;;;4985544;28;20768;-61
2022/12/28 06:44:10;;;;;;;4.25;1.48;;;;;;;;;;4991657;28;20121;-62
2022/12/28 06:46:36;;;;;;;2.75;1.23;;;;;;;;;;5014523;28;20515;-63
2022/12/28 06:49:02;;;;;;;2.28;1.35;;;;;;;;;;5017346;28;20137;-61
2022/12/28 06:51:30;;;;;;;3.85;1.35;;;;;;;;;;5023212;28;20036;-62
2022/12/28 06:53:56;;;;;;;1.70;1.02;;;;;;;;;;4998508;28;20088;-63
2022/12/28 06:56:24;;;;;;;2.38;1.20;;;;;;;;;;5000336;28;20058;-60
2022/12/28 06:58:51;;;;;;;1.88;1.23;;;;;;;;;;4968586;28;20039;-62
2022/12/28 07:01:21;;;;;;;2.58;1.48;;;;;;;;;;4980784;28;20426;-60
2022/12/28 07:03:48;;;;;;;4.65;1.20;;;;;;;;;;4989236;28;20038;-60
2022/12/28 07:06:15;;;;;;;4.10;1.35;;;;;;;;;;4985520;28;20054;-61
2022/12/28 07:08:41;;;;;;;1.60;1.10;;;;;;;;;;5018182;28;20049;-60
2022/12/28 07:11:08;;;;;;;2.42;1.38;;;;;;;;;;4987689;28;20056;-63
2022/12/28 07:13:34;;;;;;;2.90;1.30;;;;;;;;;;4992351;28;20043;-62
2022/12/28 07:16:04;;;;;;;4.55;1.27;;;;;;;;;;4973222;28;20087;-65
2022/12/28 07:18:31;;;;;;;3.03;1.30;;;;;;;;;;4985161;28;20051;-61
2022/12/28 07:20:58;;;;;;;2.03;1.00;;;;;;;;;;4980070;28;20033;-62
2022/12/28 07:23:28;;;;;;;2.67;1.30;;;;;;;;;;5028662;28;20399;-62
2022/12/28 07:25:54;;;;;;;3.22;1.20;;;;;;;;;;4978438;28;20050;-63
2022/12/28 07:28:20;;;;;;;4.28;1.20;;;;;;;;;;4992781;28;20035;-62
2022/12/28 07:30:46;;;;;;;2.15;1.10;;;;;;;;;;5013839;28;20038;-63
2022/12/28 07:33:12;;;;;;;2.35;1.27;;;;;;;;;;5013231;28;20047;-60
2022/12/28 07:35:38;;;;;;;2.92;1.33;;;;;;;;;;4980923;28;20040;-60
2022/12/28 07:38:04;;;;;;;5.50;1.05;;;;;;;;;;5025121;28;20036;-61
2022/12/28 07:40:30;;;;;;;3.60;1.23;;;;;;;;;;5028036;28;20420;-61
2022/12/28 07:42:59;;;;;;;2.22;1.23;;;;;;;;;;5016036;28;20106;-62
2022/12/28 07:45:25;;;;;;;1.58;1.10;;;;;;;;;;4999048;28;20047;-62
2022/12/28 07:47:51;;;;;;;3.67;1.27;;;;;;;;;;5027417;28;20544;-62
2022/12/28 07:50:17;;;;;;;4.72;1.10;;;;;;;;;;5005664;28;20039;-62
2022/12/28 07:52:43;;;;;;;1.70;0.90;;;;;;;;;;5026326;28;20630;-63
2022/12/28 07:55:09;;;;;;;1.83;0.95;;;;;;;;;;4967682;28;20130;-60
2022/12/28 07:57:35;;;;;;;1.60;0.90;;;;;;;;;;5024225;28;20051;-62
2022/12/28 08:00:01;;;;;;;2.50;1.35;;;;;;;;;;4987787;28;20092;-62
2022/12/28 08:02:27;;;;;;;4.03;1.10;;;;;;;;;;5049408;28;20044;-63
2022/12/28 08:04:54;;;;;;;2.35;0.90;;;;;;;;;;5046409;28;20640;-63
2022/12/28 08:07:20;;;;;;;6.55;1.40;;;;;;;;;;5020799;28;20039;-63
2022/12/28 08:09:46;;;;;;;2.05;1.10;;;;;;;;;;5030373;28;20545;-63
2022/12/28 08:12:12;;;;;;;2.95;0.90;;;;;;;;;;4970981;28;20031;-63
2022/12/28 08:14:38;;;;;;;1.13;0.80;;;;;;;;;;4964672;28;20053;-63
2022/12/28 08:17:04;;;;;;;2.55;1.20;;;;;;;;;;5012501;28;20524;-63
2022/12/28 08:19:30;;;;;;;2.00;1.00;;;;;;;;;;4997532;28;20146;-63
2022/12/28 08:21:56;;;;;;;2.15;1.02;;;;;;;;;;5018533;28;20147;-63
2022/12/28 08:24:22;;;;;;;1.73;1.15;;;;;;;;;;4960747;28;20507;-62
2022/12/28 08:26:49;;;;;;;1.85;1.10;;;;;;;;;;5011389;28;20079;-62
2022/12/28 08:29:16;;;;;;;2.03;0.98;;;;;;;;;;5003176;28;20035;-63
2022/12/28 08:31:43;;;;;;;2.20;1.00;;;;;;;;;;4979392;28;20046;-62
2022/12/28 08:34:12;;;;;;;1.73;1.10;;;;;;;;;;4981936;28;20583;-60
2022/12/28 08:36:38;;;;;;;1.42;0.85;;;;;;;;;;4997609;28;20052;-62
2022/12/28 08:39:04;;;;;;;3.00;1.17;;;;;;;;;;5018619;28;20574;-61
2022/12/28 08:41:30;;;;;;;2.42;0.90;;;;;;;;;;4997689;28;20106;-62
2022/12/28 08:43:57;;;;;;;3.88;1.05;;;;;;;;;;5013975;28;20135;-63
2022/12/28 08:46:24;;;;;;;2.53;0.80;;;;;;;;;;5014829;28;20043;-60
2022/12/28 08:48:51;;;;;;;2.83;0.93;;;;;;;;;;5000312;28;20447;-61
2022/12/28 08:51:19;;;;;;;1.73;0.80;;;;;;;;;;5002968;28;20036;-62
2022/12/28 08:53:45;;;;;;;4.32;1.40;;;;;;;;;;5020170;28;20039;-62
2022/12/28 08:56:14;;;;;;;1.77;0.90;;;;;;;;;;4984763;28;20070;-62
2022/12/28 08:58:41;;;;;;;3.47;1.05;;;;;;;;;;5022529;28;20062;-61
2022/12/28 09:01:13;;;;;;;0.98;0.73;;;;;;;;;;4971960;28;20463;-62
2022/12/28 09:03:41;;;;;;;3.30;0.90;;;;;;;;;;4969007;28;20042;-62
2022/12/28 09:06:11;;;;;;;3.35;0.93;;;;;;;;;;4987999;28;20090;-60
2022/12/28 09:08:38;;;;;;;1.95;0.70;;;;;;;;;;4979017;28;20035;-61
2022/12/28 09:11:05;;;;;;;1.23;0.70;;;;;;;;;;4988312;28;20378;-62
2022/12/28 09:13:32;;;;;;;3.50;0.93;;;;;;;;;;5002189;28;20039;-60
2022/12/28 09:15:59;;;;;;;1.85;0.77;;;;;;;;;;4986572;28;20036;-63
2022/12/28 09:18:25;;;;;;;2.15;0.80;;;;;;;;;;5003603;28;20042;-63
2022/12/28 09:20:51;;;;;;;4.07;0.70;;;;;;;;;;4969252;28;20540;-60
2022/12/28 09:23:17;;;;;;;1.02;0.60;;;;;;;;;;4986746;28;20512;-64
2022/12/28 09:25:43;;;;;;;1.33;0.73;;;;;;;;;;5050970;28;20045;-62
2022/12/28 09:28:09;;;;;;;1.13;0.70;;;;;;;;;;5049866;28;20043;-62
2022/12/28 09:30:35;;;;;;;2.53;1.08;;;;;;;;;;4968087;28;20629;-62
2022/12/28 09:35:46;;;;;;;2.47;0.80;;;;;;;;;;4993934;28;20105;-62
2022/12/28 09:38:12;;;;;;;2.28;1.00;;;;;;;;;;4992297;28;20063;-62
2022/12/28 09:40:38;;;;;;;1.33;0.60;;;;;;;;;;4968065;28;20039;-63
2022/12/28 09:43:05;;;;;;;2.50;0.73;;;;;;;;;;4986020;28;20079;-62
2022/12/28 09:45:32;;;;;;;2.10;0.77;;;;;;;;;;4970831;28;20043;-61
2022/12/28 09:48:02;;;;;;;2.05;0.70;;;;;;;;;;5030527;28;20135;-62
2022/12/28 09:50:30;;;;;;;2.17;0.80;;;;;;;;;;4973113;28;20563;-61
2022/12/28 09:53:08;;;;;;;3.30;0.77;;;;;;;;;;5042432;28;20052;-60
2022/12/28 09:55:35;;;;;;;1.17;0.60;;;;;;;;;;4975607;28;20476;-62
2022/12/28 09:58:02;;;;;;;2.05;0.63;;;;;;;;;;4984253;28;20605;-61
2022/12/28 10:00:41;;;;;;;1.75;0.65;;;;;;;;;;4960107;28;20129;-61
2022/12/28 10:03:13;;;;;;;1.58;0.65;;;;;;;;;;4995670;28;20062;-62
2022/12/28 10:05:39;;;;;;;1.25;0.60;;;;;;;;;;5009071;28;20030;-62
2022/12/28 10:08:05;;;;;;;2.85;0.47;;;;;;;;;;4996308;28;20630;-61
2022/12/28 10:10:31;;;;;;;0.57;0.47;;;;;;;;;;5007704;28;20038;-63
2022/12/28 10:12:59;;;;;;;1.48;0.52;;;;;;;;;;4998637;28;20035;-63
2022/12/28 10:15:26;;;;;;;1.50;0.50;;;;;;;;;;4986933;28;20035;-62
2022/12/28 10:17:53;;;;;;;1.40;0.70;;;;;;;;;;5027125;28;20069;-62
2022/12/28 10:20:19;;;;;;;0.60;0.40;;;;;;;;;;5015770;28;20025;-62
2022/12/28 10:22:52;;;;;;;1.17;0.70;;;;;;;;;;4996544;28;20043;-63
2022/12/28 10:25:21;;;;;;;0.70;0.50;;;;;;;;;;4995809;28;20098;-61
2022/12/28 10:27:47;;;;;;;3.75;1.35;;;;;;;;;;5000511;28;20131;-62
2022/12/28 10:30:25;;;;;;;0.95;0.57;;;;;;;;;;5007175;28;20164;-62
2022/12/28 10:32:58;;;;;;;0.35;0.30;;;;;;;;;;5009444;28;20032;-61
2022/12/28 10:35:29;;;;;;;1.30;0.50;;;;;;;;;;5006782;28;20050;-62
2022/12/28 10:38:16;;;;;;;1.17;0.60;;;;;;;;;;5035200;28;20036;-61
2022/12/28 10:40:42;;;;;;;1.65;0.40;;;;;;;;;;5017105;28;20123;-60
2022/12/28 10:43:17;;;;;;;1.00;0.52;;;;;;;;;;5026718;28;20047;-63
2022/12/28 10:45:48;;;;;;;0.47;0.43;;;;;;;;;;4999653;28;20064;-62
2022/12/28 10:48:17;;;;;;;4.53;0.40;;;;;;;;;;5023035;28;20502;-62
2022/12/28 10:50:50;;;;;;;0.30;0.30;;;;;;;;;;4981903;28;20065;-63
2022/12/28 10:53:17;;;;;;;1.50;0.40;;;;;;;;;;5011411;28;20414;-63
2022/12/28 10:55:43;;;;;;;5.05;1.35;;;;;;;;;;4981090;28;20103;-62
2022/12/28 10:58:19;;;;;;;0.73;0.47;;;;;;;;;;5011229;28;20426;-62
2022/12/28 11:00:52;;;;;;;2.60;0.63;;;;;;;;;;4974585;28;20066;-63
2022/12/28 11:03:19;;;;;;;0.57;0.40;;;;;;;;;;5003178;28;20039;-63
2022/12/28 11:05:45;;;;;;;2.67;0.85;;;;;;;;;;4973358;28;20066;-63
2022/12/28 11:08:15;;;;;;;1.02;0.50;;;;;;;;;;5024799;28;20074;-63
2022/12/28 11:10:41;;;;;;;5.13;0.70;;;;;;;;;;5006433;28;20411;-62
2022/12/28 11:13:18;;;;;;;1.60;0.60;;;;;;;;;;5016120;28;20560;-62
2022/12/28 11:15:44;;;;;;;0.52;0.43;;;;;;;;;;5000850;28;20109;-63
2022/12/28 11:18:17;;;;;;;2.80;0.50;;;;;;;;;;5011585;28;20122;-63
2022/12/28 11:20:50;;;;;;;1.13;0.52;;;;;;;;;;5010865;28;20031;-63
2022/12/28 11:23:19;;;;;;;2.28;0.52;;;;;;;;;;5032213;28;20041;-62
2022/12/28 11:25:45;;;;;;;1.02;0.40;;;;;;;;;;5004400;28;20152;-63
2022/12/28 11:28:16;;;;;;;1.30;0.45;;;;;;;;;;5029570;28;20059;-62
2022/12/28 11:30:46;;;;;;;1.92;0.47;;;;;;;;;;4988126;28;20066;-62
2022/12/28 11:33:30;;;;;;;1.90;0.50;;;;;;;;;;5004820;28;20146;-63
2022/12/28 11:35:56;;;;;;;0.52;0.30;;;;;;;;;;4980186;28;20048;-64
2022/12/28 11:38:43;;;;;;;2.42;0.50;;;;;;;;;;5000190;28;20054;-62
2022/12/28 11:41:10;;;;;;;0.90;0.50;;;;;;;;;;5016234;28;20146;-61
2022/12/28 11:43:40;;;;;;;0.70;0.40;;;;;;;;;;5008393;28;20051;-62
2022/12/28 11:46:26;;;;;;;5.05;0.70;;;;;;;;;;5007940;28;20570;-62
2022/12/28 11:49:11;;;;;;;1.60;0.57;;;;;;;;;;4987331;28;20107;-63
2022/12/28 11:51:37;;;;;;;1.00;0.60;;;;;;;;;;5015630;28;20045;-64
2022/12/28 11:54:05;;;;;;;2.30;1.42;;;;;;;;;;5018206;28;20037;-64
2022/12/28 11:56:43;;;;;;;2.90;0.80;;;;;;;;;;5019000;28;20554;-63
2022/12/28 11:59:26;;;;;;;1.75;0.77;;;;;;;;;;5011152;28;20040;-62
2022/12/28 12:01:56;;;;;;;1.17;0.50;;;;;;;;;;5016859;28;20100;-64
2022/12/28 12:04:32;;;;;;;2.92;0.68;;;;;;;;;;4986768;28;20043;-63
2022/12/28 12:07:01;;;;;;;2.58;0.70;;;;;;;;;;5014874;28;20408;-63
2022/12/28 12:09:39;;;;;;;1.88;0.63;;;;;;;;;;5009298;28;20047;-63
2022/12/28 12:12:14;;;;;;;3.70;0.75;;;;;;;;;;4983813;28;20070;-63
2022/12/28 12:14:52;;;;;;;1.17;0.90;;;;;;;;;;5042744;28;20049;-64
2022/12/28 12:17:18;;;;;;;1.65;0.82;;;;;;;;;;5002220;28;20051;-64
2022/12/28 12:19:50;;;;;;;1.35;0.80;;;;;;;;;;5024243;28;20036;-61
2022/12/28 12:22:21;;;;;;;3.03;0.98;;;;;;;;;;5012347;28;21028;-62
2022/12/28 12:25:06;;;;;;;4.22;0.77;;;;;;;;;;4996592;28;20414;-64
2022/12/28 12:27:38;;;;;;;1.80;0.93;;;;;;;;;;5029901;28;20040;-62
2022/12/28 12:30:18;;;;;;;2.25;1.00;;;;;;;;;;4978144;28;20034;-63
2022/12/28 12:32:45;;;;;;;4.00;1.20;;;;;;;;;;5034005;28;20052;-63
2022/12/28 12:35:20;;;;;;;2.80;0.95;;;;;;;;;;4974044;28;20050;-63
2022/12/28 12:37:47;;;;;;;3.92;1.27;;;;;;;;;;5063769;28;20044;-64
2022/12/28 12:40:32;;;;;;;3.50;1.10;;;;;;;;;;4977830;28;20050;-64
2022/12/28 12:43:03;;;;;;;1.98;1.02;;;;;;;;;;5011504;28;20034;-64
2022/12/28 12:45:38;;;;;;;3.28;1.33;;;;;;;;;;4989405;28;20039;-64
2022/12/28 12:48:04;;;;;;;2.92;1.08;;;;;;;;;;5028605;28;20143;-63
2022/12/28 12:50:53;;;;;;;4.95;1.70;;;;;;;;;;4971811;28;20039;-61
2022/12/28 12:53:32;;;;;;;5.18;1.00;;;;;;;;;;5045192;28;20132;-62
2022/12/28 12:56:03;;;;;;;2.85;1.08;;;;;;;;;;4983975;28;20500;-62
2022/12/28 12:58:30;;;;;;;6.53;1.30;;;;;;;;;;5013454;28;20035;-60
2022/12/28 13:01:16;;;;;;;9.73;1.67;;;;;;;;;;4970083;28;20104;-62
2022/12/28 13:03:46;;;;;;;3.58;1.38;;;;;;;;;;4994433;28;20126;-61
2022/12/28 13:06:14;;;;;;;4.72;1.52;;;;;;;;;;4984560;28;20134;-63
2022/12/28 13:08:42;;;;;;;4.20;1.45;;;;;;;;;;4967403;28;20045;-63
2022/12/28 13:11:09;;;;;;;4.63;1.30;;;;;;;;;;4977268;28;20047;-63
2022/12/28 13:13:37;;;;;;;5.10;1.70;;;;;;;;;;4963961;28;20129;-62
2022/12/28 13:16:07;;;;;;;5.45;1.15;;;;;;;;;;5043319;28;20042;-63
2022/12/28 13:18:33;;;;;;;3.53;1.27;;;;;;;;;;4997161;28;20074;-62
2022/12/28 13:21:01;;;;;;;4.55;1.50;;;;;;;;;;4989996;28;20419;-63
2022/12/28 13:23:28;;;;;;;8.90;1.60;;;;;;;;;;5022853;28;20042;-61
2022/12/28 13:25:56;;;;;;;5.55;1.30;;;;;;;;;;4982723;28;20035;-63
2022/12/28 13:28:23;;;;;;;7.32;1.27;;;;;;;;;;4999618;28;20178;-62
2022/12/28 13:31:05;;;;;;;5.57;1.25;;;;;;;;;;4998242;28;20035;-62
2022/12/28 13:33:31;;;;;;;5.07;1.30;;;;;;;;;;4969020;28;20039;-62
2022/12/28 13:36:06;;;;;;;1.75;1.10;;;;;;;;;;4987641;28;20040;-63
2022/12/28 13:38:32;;;;;;;2.53;1.33;;;;;;;;;;5028541;28;20699;-63
2022/12/28 13:40:58;;;;;;;3.90;1.13;;;;;;;;;;4982448;28;20055;-62
2022/12/28 13:43:24;;;;;;;;;;;;;;;;;;4996697;28;20652;-63
2022/12/28 13:45:52;;;;;;;3.63;1.30;;;;;;;;;;5004428;28;19918;-65
2022/12/28 13:48:18;;;;;;;3.30;1.35;;;;;;;;;;5033225;28;20132;-63
2022/12/28 13:50:45;;;;;;;4.10;1.27;;;;;;;;;;4981084;28;20462;-63
2022/12/28 13:53:12;;;;;;;3.35;1.20;;;;;;;;;;5039492;28;20036;-63
2022/12/28 13:55:41;;;;;;;3.75;1.17;;;;;;;;;;4978318;28;20036;-63
2022/12/28 13:58:10;;;;;;;2.13;0.80;;;;;;;;;;5046912;28;20099;-63
2022/12/28 14:00:37;;;;;;;9.80;1.80;;;;;;;;;;4975536;28;20051;-63
2022/12/28 14:03:06;;;;;;;4.60;1.38;;;;;;;;;;4996124;28;20404;-61
2022/12/28 14:05:32;;;;;;;7.32;1.58;;;;;;;;;;4973305;28;20045;-62
2022/12/28 14:07:58;;;;;;;6.90;1.20;;;;;;;;;;4999498;28;20033;-62
2022/12/28 14:10:25;;;;;;;4.63;1.10;;;;;;;;;;4975796;28;20083;-60
2022/12/28 14:12:52;;;;;;;1.88;0.90;;;;;;;;;;4978503;28;20046;-62
2022/12/28 14:15:18;;;;;;;2.65;1.05;;;;;;;;;;4986193;28;20113;-63
2022/12/28 14:17:46;;;;;;;3.45;1.00;;;;;;;;;;5015628;28;20044;-63
2022/12/28 14:20:12;;;;;;;3.22;0.90;;;;;;;;;;4976894;28;20506;-62
2022/12/28 14:22:39;;;;;;;4.22;1.45;;;;;;;;;;5000188;28;20532;-63
2022/12/28 14:25:07;;;;;;;4.95;1.30;;;;;;;;;;4982648;28;20413;-62
2022/12/28 14:27:35;;;;;;;2.65;1.00;;;;;;;;;;5046818;28;20535;-63
2022/12/28 14:30:02;;;;;;;3.30;1.10;;;;;;;;;;4966193;28;20445;-60
2022/12/28 14:32:28;;;;;;;2.83;0.82;;;;;;;;;;5018934;28;20035;-64
2022/12/28 14:34:58;;;;;;;3.00;1.10;;;;;;;;;;4984727;28;20390;-64
2022/12/28 14:37:37;;;;;;;5.80;1.65;;;;;;;;;;5019824;28;20414;-64
2022/12/28 14:40:04;;;;;;;5.55;1.27;;;;;;;;;;4977852;28;20781;-63
2022/12/28 14:42:31;;;;;;;4.15;1.30;;;;;;;;;;5031298;28;20050;-64
2022/12/28 14:44:57;;;;;;;4.93;1.40;;;;;;;;;;4985272;28;20057;-63
2022/12/28 14:47:41;;;;;;;3.53;1.20;;;;;;;;;;5028001;28;20043;-62
2022/12/28 14:50:16;;;;;;;3.95;1.25;;;;;;;;;;4977394;28;20487;-63
2022/12/28 14:52:47;;;;;;;2.95;1.25;;;;;;;;;;5024817;28;20071;-62
2022/12/28 14:55:20;;;;;;;5.95;1.50;;;;;;;;;;4972017;28;20042;-63
2022/12/28 14:57:48;;;;;;;3.00;0.98;;;;;;;;;;5048875;28;20743;-61